createdAt,value
2018-01-20T00:01:35.908Z,70.63
2018-01-20T00:04:02.182Z,70.88
2018-01-20T00:06:28.447Z,70.83
2018-01-20T00:08:55.443Z,70.59
2018-01-20T00:11:40.548Z,70.84
2018-01-20T00:14:07.825Z,70.79
2018-01-20T00:16:34.084Z,71.25
2018-01-20T00:19:00.326Z,71.33
2018-01-20T00:21:27.266Z,71.68
2018-01-20T00:23:53.501Z,71.58
2018-01-20T00:26:25.887Z,70.82
2018-01-20T00:28:52.126Z,70.65
2018-01-20T00:31:18.339Z,70.95
2018-01-20T00:33:44.598Z,71.08
2018-01-20T00:36:11.574Z,70.99
2018-01-20T00:38:44.861Z,71.60
2018-01-20T00:41:11.115Z,72.21
2018-01-20T00:43:37.362Z,72.58
2018-01-20T00:46:03.606Z,72.86
2018-01-20T00:48:30.011Z,72.70
2018-01-20T00:50:56.246Z,72.49
2018-01-20T00:53:22.478Z,71.91
2018-01-20T00:55:48.718Z,71.66
2018-01-20T00:58:14.931Z,71.09
2018-01-20T01:00:41.255Z,70.60
2018-01-20T01:03:07.517Z,70.27
2018-01-20T01:05:33.813Z,70.30
2018-01-20T01:08:00.048Z,70.23
2018-01-20T01:10:26.293Z,70.32
2018-01-20T01:12:52.555Z,70.14
2018-01-20T01:15:19.576Z,70.00
2018-01-20T01:17:45.804Z,69.70
2018-01-20T01:20:12.056Z,70.06
2018-01-20T01:22:39.052Z,70.08
2018-01-20T01:25:05.274Z,69.87
2018-01-20T01:27:31.510Z,69.46
2018-01-20T01:29:57.764Z,68.95
2018-01-20T01:32:23.981Z,68.72
2018-01-20T01:34:50.262Z,68.65
2018-01-20T01:37:16.492Z,68.36
2018-01-20T01:39:43.492Z,68.53
2018-01-20T01:42:09.754Z,68.47
2018-01-20T01:44:36.733Z,68.00
2018-01-20T01:47:03.062Z,67.67
2018-01-20T01:49:29.315Z,67.43
2018-01-20T01:51:55.625Z,67.35
2018-01-20T01:54:21.871Z,67.58
2018-01-20T01:56:48.118Z,68.48
2018-01-20T01:59:14.369Z,68.65
2018-01-20T02:01:40.611Z,68.48
2018-01-20T02:04:06.879Z,68.10
2018-01-20T02:06:33.127Z,67.70
2018-01-20T02:08:59.370Z,67.03
2018-01-20T02:11:25.643Z,66.87
2018-01-20T02:13:52.627Z,66.79
2018-01-20T02:16:18.859Z,66.89
2018-01-20T02:18:45.099Z,66.82
2018-01-20T02:21:11.317Z,66.84
2018-01-20T02:23:37.598Z,67.23
2018-01-20T02:26:04.581Z,67.34
2018-01-20T02:28:30.828Z,67.66
2018-01-20T02:30:57.144Z,67.31
2018-01-20T02:33:23.485Z,67.44
2018-01-20T02:35:49.704Z,67.33
2018-01-20T02:38:15.980Z,67.16
2018-01-20T02:40:43.006Z,67.04
2018-01-20T02:43:09.300Z,67.02
2018-01-20T02:45:35.618Z,66.84
2018-01-20T02:48:01.906Z,66.51
2018-01-20T02:50:28.142Z,67.03
2018-01-20T02:52:54.416Z,67.20
2018-01-20T02:55:20.660Z,67.05
2018-01-20T02:57:47.257Z,67.04
2018-01-20T03:00:14.228Z,66.87
2018-01-20T03:02:40.484Z,67.19
2018-01-20T03:05:06.721Z,67.62
2018-01-20T03:07:32.991Z,67.75
2018-01-20T03:09:59.963Z,67.41
2018-01-20T03:12:27.275Z,67.50
2018-01-20T03:14:55.000Z,67.11
2018-01-20T03:17:21.224Z,67.02
2018-01-20T03:19:47.480Z,66.85
2018-01-20T03:22:13.772Z,66.90
2018-01-20T03:24:40.000Z,66.94
2018-01-20T03:27:06.225Z,67.03
2018-01-20T03:29:32.504Z,66.88
2018-01-20T03:31:58.736Z,66.87
2018-01-20T03:34:25.024Z,67.28
2018-01-20T03:36:51.465Z,67.49
2018-01-20T03:39:17.728Z,67.36
2018-01-20T03:41:43.994Z,67.13
2018-01-20T03:44:10.976Z,66.73
2018-01-20T03:46:37.232Z,66.65
2018-01-20T03:49:03.772Z,66.30
2018-01-20T03:51:30.052Z,65.89
2018-01-20T03:53:56.270Z,65.82
2018-01-20T03:56:22.763Z,65.90
2018-01-20T03:58:49.009Z,66.21
2018-01-20T04:01:15.223Z,66.40
2018-01-20T04:03:41.476Z,66.26
2018-01-20T04:06:08.451Z,66.23
2018-01-20T04:08:34.703Z,66.53
2018-01-20T04:11:00.931Z,66.46
2018-01-20T04:13:27.195Z,66.38
2018-01-20T04:15:53.470Z,66.59
2018-01-20T04:18:19.739Z,66.37
2018-01-20T04:20:47.475Z,66.43
2018-01-20T04:23:13.744Z,66.58
2018-01-20T04:25:39.979Z,66.92
2018-01-20T04:28:06.938Z,66.48
2018-01-20T04:30:33.940Z,66.29
2018-01-20T04:33:00.156Z,66.26
2018-01-20T04:35:26.416Z,65.95
2018-01-20T04:37:52.677Z,65.39
2018-01-20T04:40:19.688Z,65.29
2018-01-20T04:42:45.952Z,65.56
2018-01-20T04:45:12.274Z,65.17
2018-01-20T04:47:39.234Z,65.12
2018-01-20T04:50:06.252Z,65.11
2018-01-20T04:52:32.496Z,65.40
2018-01-20T04:54:59.548Z,65.55
2018-01-20T04:57:26.515Z,65.89
2018-01-20T04:59:52.815Z,65.90
2018-01-20T05:02:19.052Z,65.99
2018-01-20T05:04:46.041Z,65.70
2018-01-20T05:07:12.287Z,66.10
2018-01-20T05:09:38.579Z,66.40
2018-01-20T05:12:04.922Z,66.51
2018-01-20T05:14:31.851Z,66.53
2018-01-20T05:16:58.131Z,66.75
2018-01-20T05:19:24.424Z,66.81
2018-01-20T05:21:50.715Z,66.82
2018-01-20T05:24:16.982Z,66.72
2018-01-20T05:26:43.203Z,66.94
2018-01-20T05:29:09.456Z,66.73
2018-01-20T05:31:35.676Z,66.76
2018-01-20T05:34:02.000Z,66.74
2018-01-20T05:36:28.240Z,66.94
2018-01-20T05:38:54.527Z,67.73
2018-01-20T05:41:21.472Z,69.51
2018-01-20T05:43:48.618Z,70.32
2018-01-20T05:46:14.896Z,70.72
2018-01-20T05:48:41.144Z,70.23
2018-01-20T05:51:07.456Z,69.59
2018-01-20T05:53:33.658Z,69.14
2018-01-20T05:55:59.908Z,69.01
2018-01-20T05:58:26.195Z,68.69
2018-01-20T06:00:52.441Z,68.48
2018-01-20T06:03:18.668Z,68.54
2018-01-20T06:05:45.659Z,68.39
2018-01-20T06:08:12.955Z,68.66
2018-01-20T06:10:39.215Z,68.75
2018-01-20T06:13:05.457Z,68.59
2018-01-20T06:15:31.725Z,68.82
2018-01-20T06:17:57.969Z,68.95
2018-01-20T06:20:24.189Z,69.04
2018-01-20T06:22:50.549Z,69.24
2018-01-20T06:25:17.609Z,68.91
2018-01-20T06:27:43.843Z,69.01
2018-01-20T06:30:10.390Z,68.91
2018-01-20T06:32:36.596Z,68.89
2018-01-20T06:35:03.581Z,68.80
2018-01-20T06:37:29.844Z,69.08
2018-01-20T06:39:56.095Z,69.39
2018-01-20T06:42:23.052Z,69.06
2018-01-20T06:44:49.334Z,69.19
2018-01-20T06:47:15.668Z,69.16
2018-01-20T06:49:42.096Z,69.06
2018-01-20T06:52:08.611Z,69.24
2018-01-20T06:54:35.044Z,69.53
2018-01-20T06:57:01.451Z,69.83
2018-01-20T06:59:27.872Z,69.90
2018-01-20T07:01:54.598Z,69.84
2018-01-20T07:04:21.631Z,70.02
2018-01-20T07:06:48.013Z,70.01
2018-01-20T07:09:14.244Z,69.87
2018-01-20T07:11:40.581Z,69.86
2018-01-20T07:14:06.851Z,70.04
2018-01-20T07:16:33.227Z,69.98
2018-01-20T07:18:59.523Z,69.80
2018-01-20T07:21:25.828Z,69.61
2018-01-20T07:23:52.119Z,69.77
2018-01-20T07:26:18.347Z,69.74
2018-01-20T07:28:44.675Z,70.00
2018-01-20T07:31:10.883Z,70.15
2018-01-20T07:33:37.872Z,69.95
2018-01-20T07:36:04.164Z,70.13
2018-01-20T07:38:30.906Z,70.03
2018-01-20T07:40:58.338Z,69.74
2018-01-20T07:43:24.604Z,69.85
2018-01-20T07:45:51.694Z,69.61
2018-01-20T07:48:17.967Z,69.55
2018-01-20T07:50:44.290Z,69.15
2018-01-20T07:53:11.284Z,68.81
2018-01-20T07:55:37.563Z,68.54
2018-01-20T07:58:04.118Z,68.21
2018-01-20T08:00:31.083Z,67.80
2018-01-20T08:02:57.305Z,67.72
2018-01-20T08:05:23.675Z,67.17
2018-01-20T08:07:50.911Z,66.64
2018-01-20T08:10:17.229Z,66.19
2018-01-20T08:12:43.661Z,65.81
2018-01-20T08:15:09.915Z,65.52
2018-01-20T08:17:36.247Z,65.36
2018-01-20T08:20:02.501Z,65.14
2018-01-20T08:22:28.744Z,64.91
2018-01-20T08:24:55.140Z,64.67
2018-01-20T08:27:21.724Z,64.63
2018-01-20T08:29:48.732Z,64.26
2018-01-20T08:32:15.073Z,63.57
2018-01-20T08:34:41.331Z,62.99
2018-01-20T08:37:07.604Z,62.67
2018-01-20T08:39:33.840Z,61.63
2018-01-20T08:42:00.153Z,61.54
2018-01-20T08:44:26.405Z,61.27
2018-01-20T08:46:52.764Z,61.14
2018-01-20T08:49:19.045Z,61.70
2018-01-20T08:51:45.338Z,61.47
2018-01-20T08:54:11.613Z,61.22
2018-01-20T08:56:37.939Z,60.69
2018-01-20T08:59:04.323Z,60.33
2018-01-20T09:01:30.689Z,60.96
2018-01-20T09:03:56.963Z,60.77
2018-01-20T09:06:23.289Z,60.25
2018-01-20T09:08:49.581Z,60.60
2018-01-20T09:11:15.871Z,60.00
2018-01-20T09:13:42.529Z,60.54
2018-01-20T09:16:09.808Z,59.99
2018-01-20T09:18:36.340Z,58.42
2018-01-20T09:21:02.614Z,59.99
2018-01-20T09:23:28.874Z,59.58
2018-01-20T09:25:55.880Z,59.54
2018-01-20T09:28:22.384Z,58.59
2018-01-20T09:30:48.752Z,59.15
2018-01-20T09:33:15.240Z,58.60
2018-01-20T09:35:42.297Z,58.25
2018-01-20T09:38:08.621Z,58.29
2018-01-20T09:40:35.729Z,57.83
2018-01-20T09:43:02.116Z,57.88
2018-01-20T09:45:28.375Z,57.22
2018-01-20T09:47:54.660Z,56.67
2018-01-20T09:50:21.802Z,55.29
2018-01-20T09:52:48.821Z,55.74
2018-01-20T09:55:15.142Z,55.85
2018-01-20T09:57:41.430Z,56.29
2018-01-20T10:00:07.695Z,55.48
2018-01-20T10:02:33.963Z,54.78
2018-01-20T10:05:00.249Z,53.88
2018-01-20T10:07:27.300Z,53.50
2018-01-20T10:09:53.579Z,53.93
2018-01-20T10:12:21.612Z,54.43
2018-01-20T10:14:47.856Z,53.36
2018-01-20T10:17:14.123Z,51.89
2018-01-20T10:19:41.992Z,51.22
2018-01-20T10:22:08.272Z,50.62
2018-01-20T10:24:34.522Z,50.35
2018-01-20T10:27:00.798Z,51.33
2018-01-20T10:29:27.033Z,52.30
2018-01-20T10:31:53.298Z,52.65
2018-01-20T10:34:19.574Z,53.21
2018-01-20T10:36:45.844Z,51.99
2018-01-20T10:39:12.105Z,53.66
2018-01-20T10:41:38.368Z,53.08
2018-01-20T10:44:04.624Z,53.49
2018-01-20T10:46:30.829Z,54.08
2018-01-20T10:48:57.153Z,54.33
2018-01-20T10:51:23.473Z,53.65
2018-01-20T10:53:51.473Z,52.43
2018-01-20T10:56:18.363Z,52.52
2018-01-20T10:58:44.641Z,52.59
2018-01-20T11:01:11.032Z,53.71
2018-01-20T11:03:38.028Z,53.12
2018-01-20T11:06:04.309Z,52.92
2018-01-20T11:08:30.595Z,52.58
2018-01-20T11:10:56.868Z,52.38
2018-01-20T11:13:23.180Z,53.66
2018-01-20T11:15:49.428Z,53.59
2018-01-20T11:18:15.728Z,51.42
2018-01-20T11:20:41.964Z,50.40
2018-01-20T11:23:08.239Z,50.05
2018-01-20T11:25:35.207Z,50.00
2018-01-20T11:28:01.517Z,50.02
2018-01-20T11:30:29.318Z,49.40
2018-01-20T11:32:55.619Z,50.18
2018-01-20T11:35:21.945Z,51.11
2018-01-20T11:37:48.235Z,51.35
2018-01-20T11:40:14.489Z,48.59
2018-01-20T11:42:40.781Z,43.33
2018-01-20T11:45:07.219Z,43.40
2018-01-20T11:47:33.473Z,47.08
2018-01-20T11:49:59.881Z,48.16
2018-01-20T11:52:26.291Z,48.51
2018-01-20T11:54:52.555Z,47.57
2018-01-20T11:57:18.799Z,49.75
2018-01-20T11:59:45.888Z,50.22
2018-01-20T12:02:12.185Z,50.37
2018-01-20T12:04:39.285Z,50.41
2018-01-20T12:07:05.553Z,51.63
2018-01-20T12:09:31.806Z,51.12
2018-01-20T12:11:59.840Z,50.99
2018-01-20T12:14:26.133Z,52.00
2018-01-20T12:16:52.422Z,52.01
2018-01-20T12:19:19.560Z,50.54
2018-01-20T12:21:45.910Z,51.33
2018-01-20T12:24:12.914Z,51.17
2018-01-20T12:26:39.205Z,49.63
2018-01-20T12:29:05.498Z,48.41
2018-01-20T12:31:31.810Z,46.85
2018-01-20T12:33:58.074Z,46.36
2018-01-20T12:36:25.341Z,45.38
2018-01-20T12:38:51.710Z,47.22
2018-01-20T12:41:18.015Z,47.69
2018-01-20T12:43:44.401Z,48.27
2018-01-20T12:46:10.672Z,48.11
2018-01-20T12:48:37.865Z,49.13
2018-01-20T12:51:04.515Z,49.32
2018-01-20T12:53:30.983Z,50.13
2018-01-20T12:55:58.275Z,49.76
2018-01-20T12:58:24.618Z,49.75
2018-01-20T13:00:51.040Z,50.04
2018-01-20T13:03:17.367Z,49.36
2018-01-20T13:05:44.371Z,49.08
2018-01-20T13:08:11.434Z,50.13
2018-01-20T13:10:38.504Z,50.07
2018-01-20T13:13:04.852Z,49.62
2018-01-20T13:15:31.151Z,49.69
2018-01-20T13:17:57.440Z,50.61
2018-01-20T13:20:23.716Z,51.25
2018-01-20T13:22:50.059Z,51.47
2018-01-20T13:25:16.385Z,51.75
2018-01-20T13:27:42.639Z,50.89
2018-01-20T13:30:08.947Z,51.19
2018-01-20T13:32:35.241Z,50.67
2018-01-20T13:35:01.557Z,50.51
2018-01-20T13:37:27.915Z,50.37
2018-01-20T13:39:54.940Z,50.89
2018-01-20T13:42:29.037Z,50.94
2018-01-20T13:44:55.323Z,51.51
2018-01-20T13:47:21.660Z,51.36
2018-01-20T13:49:48.664Z,51.36
2018-01-20T13:52:14.946Z,51.27
2018-01-20T13:54:41.327Z,51.28
2018-01-20T13:57:07.605Z,50.74
2018-01-20T13:59:33.849Z,51.43
2018-01-20T14:02:01.096Z,52.03
2018-01-20T14:04:27.335Z,51.89
2018-01-20T14:06:53.635Z,52.57
2018-01-20T14:09:20.821Z,52.90
2018-01-20T14:11:47.144Z,52.61
2018-01-20T14:14:13.405Z,52.85
2018-01-20T14:16:41.164Z,53.01
2018-01-20T14:19:07.476Z,53.41
2018-01-20T14:21:33.693Z,53.24
2018-01-20T14:23:59.952Z,52.72
2018-01-20T14:26:26.269Z,52.39
2018-01-20T14:28:52.662Z,52.61
2018-01-20T14:31:18.928Z,52.78
2018-01-20T14:33:45.209Z,52.45
2018-01-20T14:36:12.253Z,52.31
2018-01-20T14:38:39.283Z,52.48
2018-01-20T14:41:05.584Z,51.95
2018-01-20T14:43:31.835Z,52.95
2018-01-20T14:45:58.067Z,53.95
2018-01-20T14:48:24.433Z,53.98
2018-01-20T14:50:51.571Z,54.60
2018-01-20T14:53:18.580Z,54.59
2018-01-20T14:55:45.283Z,54.32
2018-01-20T14:58:11.555Z,53.86
2018-01-20T15:00:37.788Z,53.53
2018-01-20T15:03:04.036Z,53.49
2018-01-20T15:05:30.332Z,53.37
2018-01-20T15:07:56.564Z,53.29
2018-01-20T15:10:22.859Z,53.21
2018-01-20T15:12:49.088Z,53.01
2018-01-20T15:15:15.390Z,52.98
2018-01-20T15:17:42.390Z,53.06
2018-01-20T15:20:08.615Z,53.15
2018-01-20T15:22:35.526Z,53.44
2018-01-20T15:25:02.496Z,53.57
2018-01-20T15:27:28.764Z,53.71
2018-01-20T15:29:54.994Z,53.99
2018-01-20T15:32:21.273Z,54.05
2018-01-20T15:34:47.515Z,54.51
2018-01-20T15:37:13.830Z,54.27
2018-01-20T15:39:40.134Z,54.20
2018-01-20T15:42:06.428Z,54.65
2018-01-20T15:44:32.729Z,54.69
2018-01-20T15:46:59.003Z,55.25
2018-01-20T15:49:25.295Z,55.36
2018-01-20T15:51:51.668Z,55.36
2018-01-20T15:54:18.727Z,55.95
2018-01-20T15:56:45.028Z,56.34
2018-01-20T15:59:11.360Z,56.85
2018-01-20T16:01:37.627Z,57.23
2018-01-20T16:04:03.954Z,57.53
2018-01-20T16:06:30.241Z,57.58
2018-01-20T16:08:56.511Z,57.71
2018-01-20T16:11:22.858Z,57.79
2018-01-20T16:13:49.968Z,58.29
2018-01-20T16:16:16.399Z,58.41
2018-01-20T16:18:42.726Z,58.95
2018-01-20T16:21:09.030Z,58.93
2018-01-20T16:23:36.309Z,59.33
2018-01-20T16:26:02.588Z,58.94
2018-01-20T16:28:29.638Z,58.80
2018-01-20T16:30:56.732Z,59.11
2018-01-20T16:33:23.089Z,59.53
2018-01-20T16:35:49.469Z,59.98
2018-01-20T16:38:16.049Z,60.46
2018-01-20T16:40:42.336Z,60.71
2018-01-20T16:43:08.628Z,60.70
2018-01-20T16:45:34.989Z,60.95
2018-01-20T16:48:01.348Z,61.08
2018-01-20T16:50:27.611Z,61.50
2018-01-20T16:52:53.936Z,61.67
2018-01-20T16:55:20.155Z,61.96
2018-01-20T16:57:46.423Z,62.22
2018-01-20T17:00:20.440Z,62.42
2018-01-20T17:02:47.455Z,62.74
2018-01-20T17:05:14.626Z,63.12
2018-01-20T17:07:40.857Z,63.13
2018-01-20T17:10:07.145Z,63.36
2018-01-20T17:12:33.465Z,62.84
2018-01-20T17:14:59.897Z,62.97
2018-01-20T17:17:26.201Z,62.99
2018-01-20T17:19:53.278Z,63.53
2018-01-20T17:22:19.675Z,63.46
2018-01-20T17:24:46.743Z,64.04
2018-01-20T17:27:13.134Z,64.28
2018-01-20T17:29:39.540Z,64.22
2018-01-20T17:32:05.822Z,64.28
2018-01-20T17:34:33.060Z,64.56
2018-01-20T17:36:59.550Z,64.47
2018-01-20T17:39:25.862Z,64.56
2018-01-20T17:41:52.171Z,64.05
2018-01-20T17:44:19.262Z,64.28
2018-01-20T17:46:45.528Z,64.10
2018-01-20T17:49:11.779Z,64.34
2018-01-20T17:51:38.821Z,64.15
2018-01-20T17:54:05.842Z,63.58
2018-01-20T17:56:32.100Z,63.83
2018-01-20T17:58:59.083Z,63.85
2018-01-20T18:01:25.363Z,64.02
2018-01-20T18:03:51.625Z,63.65
2018-01-20T18:06:17.900Z,63.63
2018-01-20T18:08:44.138Z,63.89
2018-01-20T18:11:10.414Z,63.86
2018-01-20T18:13:36.660Z,63.93
2018-01-20T18:16:02.919Z,64.09
2018-01-20T18:18:29.183Z,64.05
2018-01-20T18:20:56.220Z,64.35
2018-01-20T18:23:22.486Z,64.96
2018-01-20T18:25:48.835Z,65.58
2018-01-20T18:28:15.099Z,65.78
2018-01-20T18:30:41.399Z,65.97
2018-01-20T18:33:07.738Z,66.55
2018-01-20T18:35:34.040Z,66.61
2018-01-20T18:38:00.328Z,66.79
2018-01-20T18:40:27.372Z,67.00
2018-01-20T18:42:53.747Z,67.24
2018-01-20T18:45:20.012Z,67.53
2018-01-20T18:47:46.319Z,67.46
2018-01-20T18:50:12.624Z,67.02
2018-01-20T18:52:39.652Z,66.97
2018-01-20T18:55:06.156Z,67.15
2018-01-20T18:57:39.395Z,67.21
2018-01-20T19:00:05.725Z,67.29
2018-01-20T19:02:32.708Z,66.93
2018-01-20T19:04:59.009Z,67.28
2018-01-20T19:07:25.996Z,67.79
2018-01-20T19:09:52.278Z,67.74
2018-01-20T19:12:19.298Z,67.76
2018-01-20T19:14:47.048Z,67.99
2018-01-20T19:17:13.377Z,68.09
2018-01-20T19:19:39.674Z,68.20
2018-01-20T19:22:05.974Z,68.30
2018-01-20T19:24:33.707Z,68.27
2018-01-20T19:26:59.968Z,68.62
2018-01-20T19:29:26.941Z,68.57
2018-01-20T19:31:53.188Z,68.51
2018-01-20T19:34:19.503Z,68.65
2018-01-20T19:36:52.712Z,68.56
2018-01-20T19:39:18.996Z,68.67
2018-01-20T19:41:46.010Z,68.76
2018-01-20T19:44:12.303Z,68.95
2018-01-20T19:46:38.590Z,68.79
2018-01-20T19:49:04.889Z,69.21
2018-01-20T19:51:31.189Z,69.38
2018-01-20T19:53:57.489Z,69.29
2018-01-20T19:56:23.809Z,69.53
2018-01-20T19:58:50.093Z,69.33
2018-01-20T20:01:16.381Z,69.65
2018-01-20T20:03:42.631Z,69.90
2018-01-20T20:06:09.867Z,69.81
2018-01-20T20:08:36.866Z,69.73
2018-01-20T20:11:03.119Z,70.00
2018-01-20T20:13:29.424Z,70.24
2018-01-20T20:15:56.024Z,70.35
2018-01-20T20:18:23.048Z,70.44
2018-01-20T20:20:49.316Z,70.76
2018-01-20T20:23:15.676Z,70.91
2018-01-20T20:25:41.980Z,71.23
2018-01-20T20:28:09.028Z,71.23
2018-01-20T20:30:35.303Z,71.67
2018-01-20T20:33:01.596Z,71.98
2018-01-20T20:35:27.871Z,72.17
2018-01-20T20:37:54.243Z,72.40
2018-01-20T20:40:20.502Z,72.40
2018-01-20T20:42:46.779Z,72.54
2018-01-20T20:45:13.002Z,72.59
2018-01-20T20:47:39.298Z,72.62
2018-01-20T20:50:05.601Z,72.66
2018-01-20T20:52:31.965Z,72.69
2018-01-20T20:54:58.216Z,72.04
2018-01-20T20:57:25.155Z,72.43
2018-01-20T20:59:51.440Z,72.27
2018-01-20T21:02:17.886Z,72.65
2018-01-20T21:04:44.760Z,72.38
2018-01-20T21:07:11.135Z,72.46
2018-01-20T21:09:37.722Z,72.29
2018-01-20T21:12:04.154Z,72.52
2018-01-20T21:14:30.633Z,72.28
2018-01-20T21:16:57.608Z,72.20
2018-01-20T21:19:24.020Z,72.48
2018-01-20T21:21:50.997Z,72.42
2018-01-20T21:24:17.500Z,72.18
2018-01-20T21:26:45.148Z,72.48
2018-01-20T21:29:12.621Z,72.14
2018-01-20T21:31:39.876Z,72.49
2018-01-20T21:34:06.966Z,72.30
2018-01-20T21:36:33.230Z,72.06
2018-01-20T21:38:59.511Z,71.90
2018-01-20T21:41:25.781Z,71.74
2018-01-20T21:43:52.040Z,72.04
2018-01-20T21:46:19.276Z,71.81
2018-01-20T21:48:45.567Z,71.71
2018-01-20T21:51:11.923Z,71.09
2018-01-20T21:53:38.314Z,71.03
2018-01-20T21:56:04.634Z,70.87
2018-01-20T21:58:30.936Z,70.20
2018-01-20T22:00:58.052Z,70.36
2018-01-20T22:03:24.345Z,70.14
2018-01-20T22:05:50.645Z,70.36
2018-01-20T22:08:17.632Z,70.39
2018-01-20T22:10:43.919Z,69.98
2018-01-20T22:13:10.178Z,70.10
2018-01-20T22:15:36.520Z,70.26
2018-01-20T22:18:02.786Z,69.99
2018-01-20T22:20:29.064Z,69.90
2018-01-20T22:22:56.092Z,69.93
2018-01-20T22:25:23.249Z,69.80
2018-01-20T22:27:50.281Z,69.80
2018-01-20T22:30:16.576Z,69.23
2018-01-20T22:32:42.822Z,69.31
2018-01-20T22:35:09.099Z,69.22
2018-01-20T22:37:35.356Z,69.55
2018-01-20T22:40:01.621Z,69.42
2018-01-20T22:42:27.921Z,69.15
2018-01-20T22:44:54.852Z,69.28
2018-01-20T22:47:21.096Z,69.19
2018-01-20T22:49:47.398Z,69.65
2018-01-20T22:52:13.689Z,69.65
2018-01-20T22:54:39.960Z,69.71
2018-01-20T22:57:07.132Z,69.49
2018-01-20T22:59:33.443Z,69.59
2018-01-20T23:02:00.720Z,69.35
2018-01-20T23:04:26.941Z,69.54
2018-01-20T23:06:53.217Z,68.84
2018-01-20T23:09:19.494Z,69.03
2018-01-20T23:11:45.736Z,69.20
2018-01-20T23:14:11.968Z,69.13
2018-01-20T23:16:38.200Z,69.62
2018-01-20T23:19:05.356Z,69.85
2018-01-20T23:21:31.720Z,70.30
2018-01-20T23:23:58.071Z,70.44
2018-01-20T23:26:25.049Z,70.06
2018-01-20T23:28:51.287Z,69.71
2018-01-20T23:31:17.496Z,69.82
2018-01-20T23:33:43.718Z,69.84
2018-01-20T23:36:10.011Z,69.80
2018-01-20T23:38:36.246Z,69.56
2018-01-20T23:41:03.239Z,69.25
2018-01-20T23:43:29.489Z,69.47
2018-01-20T23:45:56.679Z,69.19
2018-01-20T23:48:24.582Z,69.21
2018-01-20T23:50:50.792Z,69.28
2018-01-20T23:53:17.080Z,69.45
2018-01-20T23:55:43.321Z,69.56
2018-01-20T23:58:09.599Z,69.34
